»·PEaware :: N2822D KLGU-KVCB

N2822D :: KLGU-KVCB

FLIGHT INFORMATION

Flight Status: Arrived
Operator: Privately registered:
United States
More flights under this callsign
Pilot: Keith B. (30325)
Aircraft: BEECH AIRCRAFT BARON
(BE58)
More flights by this aircraft type
Origin: KLGU Logan-Cache
United States
Destination: KVCB Nut Tree
United States
More flights between these airports :: More routes between these airports
Route: KLGU KLOL KSPZ O61 KSAC KEDU KVCB
File this flight plan on PilotEdge
Remarks: KLGU route to KVCB
Altitude:
(Current/Filed)
10,500ft
Speed:
(Current/Filed)
170kts
Departed: 01-Aug-20 08:46 AM
Arrived: 01-Aug-20 02:37 PM
Distance/Time
Traveled:
507nm/5:51
Distance/Time
To Go:
Arrived

Flight Plot

Page will automatically refresh every two minutes.


Map Options




Map Legend


Flown Route
Filed Route
Departure Airport
Arrival Airport
Navaid (VOR, NDB)
Fix

Horizontal Profiles

Position Reports

Time Latitude Longitude Heading Altitude Ground
Speed
01-Aug-20 08:29 41.784489 -111.855481 30 4445ft 0kts
01-Aug-20 08:30 41.784489 -111.855481 30 4445ft 0kts
01-Aug-20 08:31 41.784489 -111.855481 30 4445ft 0kts
01-Aug-20 08:32 41.784499 -111.855473 30 4445ft 0kts
01-Aug-20 08:33 41.784499 -111.855473 30 4445ft 0kts
01-Aug-20 08:34 41.784499 -111.855473 30 4445ft 0kts
01-Aug-20 08:35 41.784499 -111.855473 30 4445ft 0kts
01-Aug-20 08:36 41.784499 -111.855473 30 4445ft 0kts
01-Aug-20 08:37 41.784499 -111.855473 30 4445ft 0kts
01-Aug-20 08:38 41.784499 -111.855473 30 4445ft 0kts
01-Aug-20 08:39 41.784190 -111.854302 120 4447ft 0kts
01-Aug-20 08:40 41.784237 -111.853216 30 4449ft 0kts
01-Aug-20 08:41 41.784237 -111.853216 30 4449ft 0kts
01-Aug-20 08:42 41.784237 -111.853216 30 4449ft 0kts
01-Aug-20 08:43 41.784655 -111.852864 34 4449ft 0kts
01-Aug-20 08:44 41.784655 -111.852864 34 4449ft 0kts
01-Aug-20 08:45 41.790199 -111.863540 302 4456ft 114kts
01-Aug-20 08:46 41.806615 -111.902280 298 5572ft 120kts
01-Aug-20 08:47 41.791423 -111.936210 221 6538ft 137kts
01-Aug-20 08:48 41.766768 -111.975816 240 7452ft 143kts
01-Aug-20 08:49 41.752818 -112.026667 254 8200ft 147kts
01-Aug-20 08:50 41.741208 -112.078694 254 8907ft 144kts
01-Aug-20 08:51 41.729889 -112.129159 254 9591ft 136kts
01-Aug-20 08:52 41.719453 -112.175585 254 10263ft 124kts
01-Aug-20 08:53 41.708685 -112.223391 254 10472ft 150kts
01-Aug-20 08:54 41.695600 -112.281516 253 10464ft 173kts
01-Aug-20 08:55 41.681277 -112.344783 253 10458ft 180kts
01-Aug-20 08:56 41.666667 -112.409204 253 10453ft 181kts
01-Aug-20 08:57 41.651984 -112.473643 253 10448ft 181kts
01-Aug-20 08:58 41.637192 -112.538459 253 10448ft 185kts
01-Aug-20 08:59 41.622052 -112.604559 253 10442ft 187kts
01-Aug-20 09:00 41.606757 -112.671092 253 10486ft 185kts
01-Aug-20 09:01 41.591518 -112.737242 253 10489ft 187kts
01-Aug-20 09:02 41.576192 -112.803617 253 10487ft 187kts
01-Aug-20 09:03 41.560715 -112.870360 253 10481ft 188kts
01-Aug-20 09:04 41.545205 -112.937049 253 10477ft 189kts
01-Aug-20 09:05 41.529544 -113.004277 253 10471ft 190kts
01-Aug-20 09:06 41.513701 -113.071971 254 10469ft 191kts
01-Aug-20 09:07 41.497821 -113.139673 253 10452ft 191kts
01-Aug-20 09:08 41.481864 -113.207550 253 10442ft 192kts
01-Aug-20 09:09 41.465652 -113.276246 253 10428ft 195kts
01-Aug-20 09:10 41.449280 -113.345386 253 10422ft 196kts
01-Aug-20 09:11 41.432825 -113.414679 252 10437ft 195kts
01-Aug-20 09:12 41.416338 -113.483946 252 10433ft 197kts
01-Aug-20 09:13 41.399685 -113.553659 252 10427ft 197kts
01-Aug-20 09:14 41.383003 -113.623323 252 10425ft 197kts
01-Aug-20 09:15 41.366370 -113.692528 252 10477ft 196kts
01-Aug-20 09:16 41.349643 -113.761912 252 10476ft 197kts
01-Aug-20 09:17 41.332252 -113.831449 250 10471ft 197kts
01-Aug-20 09:18 41.315245 -113.900829 252 10464ft 198kts
01-Aug-20 09:19 41.298289 -113.970551 252 10462ft 198kts
01-Aug-20 09:20 41.281335 -114.040050 252 10456ft 198kts
01-Aug-20 09:21 41.264281 -114.109777 252 10449ft 198kts
01-Aug-20 09:22 41.247209 -114.179327 252 10449ft 198kts
01-Aug-20 09:23 41.230046 -114.249053 252 10441ft 198kts
01-Aug-20 09:24 41.212905 -114.318525 252 10434ft 198kts
01-Aug-20 09:25 41.195681 -114.388078 252 10432ft 198kts
01-Aug-20 09:26 41.178458 -114.457408 252 10428ft 198kts
01-Aug-20 09:27 41.161150 -114.526934 252 10422ft 198kts
01-Aug-20 09:28 41.143791 -114.596400 252 10420ft 198kts
01-Aug-20 09:29 41.126371 -114.665938 251 10457ft 196kts
01-Aug-20 09:30 41.109090 -114.734742 251 10468ft 197kts
01-Aug-20 09:31 41.091706 -114.803722 251 10490ft 197kts
01-Aug-20 09:32 41.074308 -114.872628 252 10508ft 197kts
01-Aug-20 09:33 41.056857 -114.941505 252 10529ft 196kts
01-Aug-20 09:34 41.039413 -115.010048 252 10535ft 196kts
01-Aug-20 09:35 41.022030 -115.078213 249 10527ft 195kts
01-Aug-20 09:36 41.004474 -115.146840 249 10521ft 198kts
01-Aug-20 09:37 40.986670 -115.216272 250 10518ft 200kts
01-Aug-20 09:38 40.968730 -115.286153 250 10514ft 201kts
01-Aug-20 09:39 40.950583 -115.356507 250 10510ft 202kts
01-Aug-20 09:40 40.932434 -115.426671 250 10505ft 202kts
01-Aug-20 09:41 40.914204 -115.497117 250 10501ft 202kts
01-Aug-20 09:42 40.895925 -115.567443 250 10516ft 201kts
01-Aug-20 09:43 40.877581 -115.637641 250 10520ft 202kts
01-Aug-20 09:45 40.859389 -115.707252 249 10574ft 201kts
01-Aug-20 09:46 40.841032 -115.777187 249 10571ft 202kts
01-Aug-20 09:47 40.822609 -115.847221 249 10565ft 202kts
01-Aug-20 09:48 40.804075 -115.917426 249 10562ft 202kts
01-Aug-20 09:49 40.785628 -115.987756 249 10556ft 202kts
01-Aug-20 09:50 40.767082 -116.057735 249 10552ft 202kts
01-Aug-20 09:51 40.748378 -116.127934 249 10546ft 202kts
01-Aug-20 09:52 40.729667 -116.198059 249 10542ft 202kts
01-Aug-20 09:53 40.710921 -116.268047 249 10526ft 203kts
01-Aug-20 09:54 40.692069 -116.338319 249 10513ft 203kts
01-Aug-20 09:55 40.673156 -116.408578 250 10498ft 203kts
01-Aug-20 09:56 40.654240 -116.478559 250 10491ft 203kts
01-Aug-20 09:57 40.635261 -116.548737 250 10490ft 203kts
01-Aug-20 09:58 40.616281 -116.618633 250 10485ft 203kts
01-Aug-20 09:59 40.597295 -116.688344 249 10541ft 201kts
01-Aug-20 10:00 40.578319 -116.757858 249 10535ft 202kts
01-Aug-20 10:01 40.559208 -116.827606 249 10531ft 203kts
01-Aug-20 10:01 40.543244 -116.885815 249 10531ft 203kts
01-Aug-20 10:03 40.520778 -116.967421 249 10521ft 203kts
01-Aug-20 10:04 40.501426 -117.037547 249 10513ft 204kts
01-Aug-20 10:04 40.485195 -117.096207 249 10514ft 205kts
01-Aug-20 10:05 40.465605 -117.166787 249 10507ft 206kts
01-Aug-20 10:07 40.442597 -117.249477 249 10502ft 206kts
01-Aug-20 10:07 40.426180 -117.308314 249 10495ft 207kts
01-Aug-20 10:08 40.406352 -117.379155 249 10493ft 206kts
01-Aug-20 10:09 40.386013 -117.449912 247 10468ft 207kts
01-Aug-20 10:10 40.365824 -117.520443 248 10465ft 206kts
01-Aug-20 10:11 40.345896 -117.591169 247 10460ft 206kts
01-Aug-20 10:12 40.326117 -117.661079 247 10480ft 201kts
01-Aug-20 10:13 40.306623 -117.729824 247 10502ft 201kts
01-Aug-20 10:14 40.287002 -117.798768 247 10496ft 202kts
01-Aug-20 10:15 40.267263 -117.868005 247 10482ft 203kts
01-Aug-20 10:16 40.247569 -117.936953 247 10480ft 202kts
01-Aug-20 10:17 40.227710 -118.006204 247 10460ft 203kts
01-Aug-20 10:18 40.207914 -118.075142 247 10457ft 202kts
01-Aug-20 10:19 40.188057 -118.144063 247 10453ft 202kts
01-Aug-20 10:20 40.168170 -118.212899 247 10449ft 202kts
01-Aug-20 10:21 40.148142 -118.282012 247 10444ft 202kts
01-Aug-20 10:22 40.128188 -118.350690 247 10442ft 202kts
01-Aug-20 10:23 40.108251 -118.419182 247 10465ft 202kts
01-Aug-20 10:24 40.088156 -118.488005 247 10461ft 202kts
01-Aug-20 10:25 40.067591 -118.556473 244 10450ft 202kts
01-Aug-20 10:26 40.027834 -118.604869 213 10447ft 198kts
01-Aug-20 10:27 39.984508 -118.649413 217 10440ft 199kts
01-Aug-20 10:28 39.941591 -118.694202 216 10476ft 198kts
01-Aug-20 10:29 39.898622 -118.738945 216 10471ft 198kts
01-Aug-20 10:30 39.855866 -118.783435 216 10534ft 197kts
01-Aug-20 10:31 39.812861 -118.828050 216 10529ft 198kts
01-Aug-20 10:32 39.769796 -118.872729 216 10524ft 197kts
01-Aug-20 10:33 39.727150 -118.916822 216 10530ft 195kts
01-Aug-20 10:34 39.684977 -118.960401 216 10525ft 193kts
01-Aug-20 10:35 39.643078 -119.003603 216 10519ft 191kts
01-Aug-20 10:36 39.601689 -119.046098 217 10516ft 189kts
01-Aug-20 10:37 39.560585 -119.088289 217 10519ft 188kts
01-Aug-20 10:38 39.519645 -119.130341 217 10529ft 187kts
01-Aug-20 10:39 39.478780 -119.172224 218 10537ft 187kts
01-Aug-20 10:40 39.437849 -119.214122 218 10544ft 187kts
01-Aug-20 10:41 39.397782 -119.257174 231 10556ft 188kts
01-Aug-20 10:42 39.375014 -119.318357 241 10562ft 189kts
01-Aug-20 10:43 39.350629 -119.378558 241 10558ft 189kts
01-Aug-20 10:44 39.326357 -119.438577 241 10551ft 189kts
01-Aug-20 10:45 39.301795 -119.499171 241 10548ft 189kts
01-Aug-20 10:46 39.277253 -119.559547 241 10543ft 189kts
01-Aug-20 10:47 39.252741 -119.619834 241 10536ft 189kts
01-Aug-20 10:48 39.228316 -119.679662 240 10590ft 187kts
01-Aug-20 10:49 39.203874 -119.739520 240 10587ft 189kts
01-Aug-20 10:50 39.179255 -119.799637 240 10595ft 189kts
01-Aug-20 10:51 39.154725 -119.859485 240 10613ft 189kts
01-Aug-20 10:52 39.130103 -119.919366 240 10634ft 189kts
01-Aug-20 10:53 39.105486 -119.979163 241 10654ft 189kts
01-Aug-20 10:54 39.080878 -120.038790 241 10664ft 189kts
01-Aug-20 10:55 39.056073 -120.098795 241 10661ft 190kts
01-Aug-20 10:56 39.031225 -120.158828 241 10657ft 190kts
01-Aug-20 10:57 39.006330 -120.218771 241 10652ft 191kts
01-Aug-20 10:58 38.981171 -120.279315 241 10635ft 192kts
01-Aug-20 10:59 38.955666 -120.340493 241 10486ft 200kts
01-Aug-20 11:00 38.928787 -120.405965 242 9921ft 212kts
01-Aug-20 11:01 38.900591 -120.473686 241 9317ft 218kts
01-Aug-20 11:02 38.871919 -120.542057 241 8912ft 217kts
01-Aug-20 11:33 41.784526 -111.855452 30 4445ft 0kts
01-Aug-20 11:34 41.784526 -111.855452 30 4445ft 0kts
01-Aug-20 11:35 41.784526 -111.855452 30 4445ft 0kts
01-Aug-20 11:36 41.784283 -111.854439 122 4447ft 15kts
01-Aug-20 11:37 41.781075 -111.851505 10 4452ft 11kts
01-Aug-20 11:38 41.781221 -111.849940 92 4452ft 11kts
01-Aug-20 11:39 41.782725 -111.852428 153 4450ft 0kts
01-Aug-20 11:41 41.782725 -111.852428 153 4450ft 0kts
01-Aug-20 11:42 41.782725 -111.852428 153 4450ft 0kts
01-Aug-20 11:43 41.781244 -111.850810 90 4452ft 16kts
01-Aug-20 11:44 41.781205 -111.849856 92 4452ft 12kts
01-Aug-20 11:45 41.803088 -111.848154 0 4748ft 121kts
01-Aug-20 11:46 41.837958 -111.859532 287 5305ft 143kts
01-Aug-20 11:47 41.819443 -111.899183 219 6276ft 125kts
01-Aug-20 11:48 41.794763 -111.926295 218 7242ft 103kts
01-Aug-20 11:49 41.769504 -111.954082 222 7408ft 145kts
01-Aug-20 11:50 41.749748 -112.001096 249 7875ft 148kts
01-Aug-20 11:51 41.735122 -112.053207 250 8314ft 149kts
01-Aug-20 11:52 41.720509 -112.104917 250 8725ft 147kts
01-Aug-20 11:53 41.711014 -112.156736 280 9096ft 143kts
01-Aug-20 11:54 41.711567 -112.209124 256 9448ft 145kts
01-Aug-20 11:55 41.699859 -112.262586 253 9823ft 153kts
01-Aug-20 11:56 41.687391 -112.317691 253 10178ft 156kts
01-Aug-20 11:57 41.674703 -112.373657 253 10455ft 160kts
01-Aug-20 11:58 41.661138 -112.433446 253 10455ft 174kts
01-Aug-20 11:59 41.646728 -112.496709 253 10449ft 180kts
01-Aug-20 11:59 41.634489 -112.550209 253 10447ft 181kts
01-Aug-20 12:00 41.619645 -112.615028 253 10442ft 182kts
01-Aug-20 12:02 41.602317 -112.690410 252 10492ft 181kts
01-Aug-20 12:02 41.589885 -112.744280 252 10491ft 182kts
01-Aug-20 12:03 41.574950 -112.808963 252 10487ft 183kts
01-Aug-20 12:04 41.559862 -112.874016 252 10484ft 183kts
01-Aug-20 12:05 41.544753 -112.938962 252 10478ft 183kts
01-Aug-20 12:06 41.529649 -113.003798 252 10474ft 183kts
01-Aug-20 12:07 41.514479 -113.068629 252 10470ft 182kts
01-Aug-20 12:08 41.499299 -113.133358 252 10464ft 183kts
01-Aug-20 12:09 41.484100 -113.198026 252 10451ft 183kts
01-Aug-20 12:10 41.468782 -113.262928 252 10446ft 183kts
01-Aug-20 12:11 41.453388 -113.328017 252 10447ft 184kts
01-Aug-20 12:12 41.438014 -113.392853 252 10440ft 184kts
01-Aug-20 12:13 41.422490 -113.458085 252 10436ft 184kts
01-Aug-20 12:14 41.407016 -113.522971 252 10433ft 184kts
01-Aug-20 12:15 41.391417 -113.588166 252 10428ft 184kts
01-Aug-20 12:16 41.375824 -113.653140 251 10429ft 184kts
01-Aug-20 12:17 41.360335 -113.717549 251 10477ft 183kts
01-Aug-20 12:18 41.344292 -113.782114 249 10473ft 184kts
01-Aug-20 12:19 41.328343 -113.846753 251 10468ft 184kts
01-Aug-20 12:20 41.312608 -113.911682 251 10466ft 184kts
01-Aug-20 12:21 41.296765 -113.976736 251 10460ft 184kts
01-Aug-20 12:22 41.280968 -114.041525 251 10455ft 184kts
01-Aug-20 12:23 41.265076 -114.106504 251 10453ft 184kts
01-Aug-20 12:24 41.249127 -114.171459 251 10447ft 184kts
01-Aug-20 12:25 41.233191 -114.236268 251 10446ft 184kts
01-Aug-20 12:26 41.217188 -114.301133 251 10440ft 184kts
01-Aug-20 12:27 41.201143 -114.365963 251 10437ft 185kts
01-Aug-20 12:28 41.185072 -114.430790 251 10433ft 185kts
01-Aug-20 12:29 41.169005 -114.495351 251 10427ft 185kts
01-Aug-20 12:30 41.152794 -114.560335 251 10425ft 184kts
01-Aug-20 12:31 41.136631 -114.625002 251 10420ft 185kts
01-Aug-20 12:32 41.120475 -114.689362 250 10470ft 183kts
01-Aug-20 12:33 41.104345 -114.753527 250 10475ft 184kts
01-Aug-20 12:34 41.088136 -114.817822 250 10488ft 184kts
01-Aug-20 12:35 41.071838 -114.882248 251 10500ft 183kts
01-Aug-20 12:36 41.055679 -114.946021 251 10512ft 182kts
01-Aug-20 12:37 41.039477 -115.009735 251 10517ft 182kts
01-Aug-20 12:38 41.023226 -115.073482 250 10512ft 182kts
01-Aug-20 12:39 41.006955 -115.137175 250 10508ft 182kts
01-Aug-20 12:40 40.990586 -115.201000 250 10506ft 184kts
01-Aug-20 12:41 40.973960 -115.265775 250 10500ft 187kts
01-Aug-20 12:42 40.957040 -115.331403 250 10496ft 188kts
01-Aug-20 12:43 40.940145 -115.396831 250 10492ft 188kts
01-Aug-20 12:44 40.923122 -115.462523 250 10489ft 188kts
01-Aug-20 12:45 40.906112 -115.528151 250 10483ft 188kts
01-Aug-20 12:46 40.889079 -115.593645 250 10507ft 188kts
01-Aug-20 12:47 40.871984 -115.659017 249 10530ft 187kts
01-Aug-20 12:48 40.854985 -115.724007 249 10556ft 188kts
01-Aug-20 12:49 40.837813 -115.789399 249 10550ft 188kts
01-Aug-20 12:50 40.820614 -115.854769 249 10546ft 188kts
01-Aug-20 12:51 40.803426 -115.920335 249 10541ft 189kts
01-Aug-20 12:52 40.786139 -115.985873 249 10540ft 189kts
01-Aug-20 12:53 40.768835 -116.051077 249 10534ft 189kts
01-Aug-20 12:54 40.751431 -116.116456 249 10530ft 189kts
01-Aug-20 12:55 40.733960 -116.181977 249 10526ft 189kts
01-Aug-20 12:56 40.716409 -116.247528 249 10512ft 189kts
01-Aug-20 12:57 40.699128 -116.312021 249 10496ft 185kts
01-Aug-20 12:58 40.681918 -116.375962 249 10486ft 184kts
01-Aug-20 12:59 40.664813 -116.439440 249 10478ft 184kts
01-Aug-20 13:00 40.647615 -116.503030 249 10476ft 184kts
01-Aug-20 13:01 40.630478 -116.566300 249 10472ft 184kts
01-Aug-20 13:02 40.613257 -116.629677 249 10470ft 184kts
01-Aug-20 13:03 40.596083 -116.692734 248 10522ft 182kts
01-Aug-20 13:04 40.578837 -116.755919 248 10518ft 184kts
01-Aug-20 13:05 40.561490 -116.819264 248 10512ft 184kts
01-Aug-20 13:06 40.544142 -116.882531 248 10511ft 184kts
01-Aug-20 13:07 40.526849 -116.945347 248 10505ft 184kts
01-Aug-20 13:08 40.509307 -117.009007 248 10500ft 184kts
01-Aug-20 13:09 40.491750 -117.072430 248 10497ft 187kts
01-Aug-20 13:10 40.473676 -117.137707 248 10494ft 193kts
01-Aug-20 13:11 40.455127 -117.204418 248 10489ft 194kts
01-Aug-20 13:12 40.436583 -117.271002 248 10484ft 195kts
01-Aug-20 13:13 40.417871 -117.337982 248 10479ft 195kts
01-Aug-20 13:14 40.399135 -117.404865 248 10477ft 195kts
01-Aug-20 13:15 40.379874 -117.471214 246 10471ft 194kts
01-Aug-20 13:16 40.360943 -117.537732 248 10457ft 194kts
01-Aug-20 13:17 40.342144 -117.604399 248 10456ft 194kts
01-Aug-20 13:18 40.323498 -117.670232 247 10542ft 190kts
01-Aug-20 13:19 40.304970 -117.735621 247 10549ft 192kts
01-Aug-20 13:20 40.286189 -117.801618 247 10545ft 193kts
01-Aug-20 13:21 40.267406 -117.867512 247 10539ft 193kts
01-Aug-20 13:22 40.248509 -117.933616 247 10526ft 194kts
01-Aug-20 13:23 40.229612 -117.999555 247 10520ft 193kts
01-Aug-20 13:24 40.210642 -118.065612 247 10517ft 193kts
01-Aug-20 13:25 40.191665 -118.131458 247 10511ft 193kts
01-Aug-20 13:26 40.172647 -118.197377 247 10510ft 193kts
01-Aug-20 13:27 40.153612 -118.263075 247 10504ft 193kts
01-Aug-20 13:28 40.134475 -118.329069 247 10498ft 194kts
01-Aug-20 13:29 40.115360 -118.394740 246 10484ft 192kts
01-Aug-20 13:30 40.096423 -118.459676 246 10480ft 190kts
01-Aug-20 13:31 40.077600 -118.524047 246 10478ft 189kts
01-Aug-20 13:32 40.052197 -118.582709 215 10469ft 184kts
01-Aug-20 13:33 40.010838 -118.621759 216 10468ft 185kts
01-Aug-20 13:34 39.970799 -118.663735 215 10493ft 185kts
01-Aug-20 13:35 39.930056 -118.706201 215 10494ft 189kts
01-Aug-20 13:36 39.889029 -118.748932 215 10541ft 187kts
01-Aug-20 13:38 39.848002 -118.791597 215 10550ft 189kts
01-Aug-20 13:39 39.806763 -118.834388 215 10548ft 189kts
01-Aug-20 13:40 39.765920 -118.876701 216 10544ft 187kts
01-Aug-20 13:41 39.725490 -118.918550 217 10546ft 184kts
01-Aug-20 13:42 39.685692 -118.959641 217 10544ft 182kts
01-Aug-20 13:43 39.646067 -119.000523 218 10538ft 181kts
01-Aug-20 13:44 39.606522 -119.041092 218 10534ft 180kts
01-Aug-20 13:45 39.567219 -119.081488 219 10539ft 180kts
01-Aug-20 13:46 39.527900 -119.121834 219 10546ft 180kts
01-Aug-20 13:47 39.488498 -119.162245 219 10549ft 181kts
01-Aug-20 13:48 39.449034 -119.202665 219 10556ft 183kts
01-Aug-20 13:49 39.408718 -119.243832 219 10560ft 185kts
01-Aug-20 13:50 39.382038 -119.299808 244 10564ft 185kts
01-Aug-20 13:51 39.358464 -119.359201 241 10556ft 186kts
01-Aug-20 13:52 39.334499 -119.418459 242 10554ft 186kts
01-Aug-20 13:53 39.310507 -119.477688 242 10550ft 186kts
01-Aug-20 13:53 39.290538 -119.526875 241 10546ft 185kts
01-Aug-20 13:55 39.262525 -119.595778 242 10541ft 186kts
01-Aug-20 13:56 39.238439 -119.654867 241 10551ft 185kts
01-Aug-20 13:56 39.218490 -119.703729 241 10591ft 185kts
01-Aug-20 13:57 39.194403 -119.762683 241 10585ft 186kts
01-Aug-20 13:59 39.165821 -119.832406 241 10411ft 192kts
01-Aug-20 14:00 39.141230 -119.892322 241 10431ft 187kts
01-Aug-20 14:00 39.120886 -119.941742 241 10450ft 186kts
01-Aug-20 14:01 39.096630 -120.000652 241 10477ft 186kts
01-Aug-20 14:02 39.072323 -120.059465 242 10481ft 186kts
01-Aug-20 14:03 39.047910 -120.118512 242 10479ft 187kts
01-Aug-20 14:04 39.023438 -120.177547 242 10436ft 189kts
01-Aug-20 14:05 38.996866 -120.241527 239 9953ft 214kts
01-Aug-20 14:06 38.968573 -120.309623 242 9457ft 213kts
01-Aug-20 14:07 38.941675 -120.374826 242 9400ft 202kts
01-Aug-20 14:08 38.915339 -120.438397 241 9350ft 201kts
01-Aug-20 14:09 38.888806 -120.501704 240 9330ft 201kts
01-Aug-20 14:10 38.862188 -120.565181 240 9315ft 202kts
01-Aug-20 14:11 38.834552 -120.630931 241 8873ft 216kts
01-Aug-20 14:12 38.805951 -120.698762 240 8562ft 214kts
01-Aug-20 14:13 38.777778 -120.765481 240 8361ft 212kts
01-Aug-20 14:14 38.750019 -120.831073 240 8346ft 207kts
01-Aug-20 14:15 38.722206 -120.895365 238 8351ft 206kts
01-Aug-20 14:16 38.694528 -120.959722 240 8338ft 206kts
01-Aug-20 14:17 38.661586 -121.019536 225 8250ft 207kts
01-Aug-20 14:18 38.623276 -121.074777 228 8106ft 207kts
01-Aug-20 14:19 38.579816 -121.123001 219 7933ft 207kts
01-Aug-20 14:20 38.535057 -121.169600 219 7734ft 207kts
01-Aug-20 14:21 38.490481 -121.215341 219 7479ft 203kts
01-Aug-20 14:22 38.446397 -121.259991 219 7189ft 203kts
01-Aug-20 14:23 38.401758 -121.304686 219 6893ft 204kts
01-Aug-20 14:24 38.386320 -121.369400 279 6558ft 204kts
01-Aug-20 14:25 38.397566 -121.439424 282 6459ft 198kts
01-Aug-20 14:26 38.408836 -121.507836 282 6420ft 198kts
01-Aug-20 14:27 38.433692 -121.572237 305 5843ft 209kts
01-Aug-20 14:28 38.463682 -121.636708 299 5237ft 211kts
01-Aug-20 14:29 38.492641 -121.700921 299 4873ft 205kts
01-Aug-20 14:30 38.520956 -121.763862 299 4581ft 203kts
01-Aug-20 14:31 38.527830 -121.832980 243 4268ft 208kts
01-Aug-20 14:32 38.482135 -121.875935 208 3410ft 196kts
01-Aug-20 14:33 38.440317 -121.908129 213 2171ft 134kts
01-Aug-20 14:34 38.413338 -121.931803 209 1264ft 108kts
01-Aug-20 14:35 38.387710 -121.953181 210 235ft 109kts
01-Aug-20 14:36 38.374988 -121.961814 125 114ft 14kts
01-Aug-20 14:37 38.375247 -121.960995 33 110ft 0kts
01-Aug-20 14:38 38.375247 -121.960995 33 110ft 0kts
01-Aug-20 14:39 38.375247 -121.960995 33 110ft 0kts

Navigation Log

Ident Type
Flight plan parsing failed, navigation log unavailable